Goliah — WDD5908 — position and weather

sailwx.info

Track history (hours):
 
Tides and Currents Weather Stations Pressure Air Temp Water Temp Dewpoint Dewpoint Depression Visibility Wind Speed Wind Dir Waves Ship Positions

Goliah

Owner: Crowley Marine Services, Inc., Seattle, WA. More information available from US FCC via Universal Licensing System and Coast Guard Vessel Documentation Center.

Last reported at 2015-Jan-30 18:19 UTC. Time now 2015-Jan-31 00:48 UTC.
Position N 33°47' W 118°27'.

Length 33 m; draft 4.8 m.

Type: Tug. MMSI: 366898250.

Date/timePositionNaut miles runAvg speedWind from/ knotsBaromVisibWave heightAir tempDewpointWater temp
2015-Jan-30 18:19N 33°47' W 118°27'7 9.2
2015-Jan-30 17:33N 33°54' W 118°27'1 0.6
2015-Jan-30 16:33N 33°54' W 118°27'0 0.4
2015-Jan-30 15:33N 33°54' W 118°27'0 0.4
2015-Jan-30 14:33N 33°54' W 118°27'15 3.4
2015-Jan-30 10:18N 33°45' W 118°13'0 0.3
2015-Jan-30 09:17N 33°45' W 118°13'0 0.4
2015-Jan-30 08:33N 33°45' W 118°13'2 2.2
2015-Jan-30 07:27N 33°44' W 118°10'2 2.5
2015-Jan-30 06:30N 33°45' W 118°13'0 0.0
2015-Jan-30 05:33N 33°45' W 118°13'0 0.0
2015-Jan-30 04:32N 33°45' W 118°13'1 1.4
2015-Jan-30 03:33N 33°46' W 118°14'0 0.5
2015-Jan-30 02:31N 33°46' W 118°13'2 2.4
2015-Jan-30 01:30N 33°44' W 118°12'3 2.5
2015-Jan-30 00:12N 33°43' W 118°16'1 1.9
2015-Jan-29 23:27N 33°44' W 118°17'0 0.0
2015-Jan-29 22:13N 33°44' W 118°17'0 0.0
2015-Jan-29 21:32N 33°44' W 118°17'0 0.0
2015-Jan-29 20:33N 33°44' W 118°17'4 0.6
2015-Jan-29 14:32N 33°46' W 118°13'2 1.5
2015-Jan-29 13:34N 33°45' W 118°13'0 0.3
2015-Jan-29 12:28N 33°45' W 118°13'0 0.4
2015-Jan-29 11:32N 33°45' W 118°13'0 0.0
2015-Jan-29 10:33N 33°45' W 118°13'0 0.4
2015-Jan-29 09:33N 33°45' W 118°12'3 2.6
2015-Jan-29 08:17N 33°43' W 118°16'3 0.7
2015-Jan-29 03:34N 33°46' W 118°13'0 0.0
2015-Jan-29 02:33N 33°46' W 118°13'1 1.1
2015-Jan-29 01:33N 33°44' W 118°13'3 0.4
2015-Jan-28 17:09N 33°44' W 118°17'0 0.0
2015-Jan-28 16:27N 33°44' W 118°17'0 0.0
2015-Jan-28 15:30N 33°44' W 118°17'1 0.6
2015-Jan-28 13:32N 33°45' W 118°16'5 4.0
2015-Jan-28 12:17N 33°41' W 118°14'4 5.9
2015-Jan-28 11:33N 33°44' W 118°17'0 0.0
2015-Jan-28 10:34N 33°44' W 118°17'0 0.0
2015-Jan-28 09:34N 33°44' W 118°17'0 0.0
2015-Jan-28 07:28N 33°44' W 118°17'0 0.0
2015-Jan-28 06:32N 33°44' W 118°17'0 0.0
2015-Jan-28 04:13N 33°44' W 118°17'0 0.0
2015-Jan-28 03:34N 33°44' W 118°17'0 0.0
2015-Jan-28 02:33N 33°44' W 118°17'0 0.0
2015-Jan-28 01:33N 33°44' W 118°17'0 0.0
2015-Jan-28 00:33N 33°44' W 118°17'0 0.0
2015-Jan-27 23:19N 33°44' W 118°17'0 0.0
2015-Jan-26 22:34N 33°44' W 118°17'4 0.4
2015-Jan-26 14:23N 33°45' W 118°12'2 2.0
2015-Jan-26 13:32N 33°44' W 118°11'4 0.4
2015-Jan-26 03:05N 33°45' W 118°16'1 1.2
2015-Jan-26 02:31N 33°46' W 118°16'0 0.0
2015-Jan-24 23:32N 33°45' W 118°16'0 0.0
2015-Jan-24 19:32N 33°46' W 118°16'3 0.5
2015-Jan-24 13:05N 33°43' W 118°13'3 0.8
2015-Jan-24 09:14N 33°44' W 118°17'0 0.0
2015-Jan-24 08:33N 33°44' W 118°17'0 0.0
2015-Jan-24 07:33N 33°44' W 118°17'2 1.4
2015-Jan-24 06:27N 33°46' W 118°16'0 0.4
2015-Jan-24 05:33N 33°45' W 118°16'2 1.5
2015-Jan-24 04:04N 33°43' W 118°16'0 0.5
2015-Jan-24 03:33N 33°43' W 118°16'1 1.3
2015-Jan-24 02:33N 33°45' W 118°17'0 0.0
2015-Jan-23 18:25N 33°44' W 118°17'0 0.0
2015-Jan-22 19:08N 33°44' W 118°17'0 0.0
2015-Jan-22 17:32N 33°44' W 118°17'0 0.0
2015-Jan-22 16:32N 33°44' W 118°17'0 0.0
2015-Jan-22 15:33N 33°44' W 118°17'0 0.0
2015-Jan-22 14:32N 33°44' W 118°17'0 0.0
2015-Jan-22 13:29N 33°44' W 118°17'0 0.0
2015-Jan-22 12:33N 33°44' W 118°17'0 0.0
2015-Jan-22 10:22N 33°44' W 118°17'0 0.0
2015-Jan-22 09:32N 33°44' W 118°17'0 0.0
2015-Jan-22 08:30N 33°44' W 118°17'0 0.0
2015-Jan-22 07:27N 33°44' W 118°17'0 0.0
2015-Jan-22 06:27N 33°44' W 118°17'0 0.0
2015-Jan-22 05:33N 33°44' W 118°17'0 0.0
2015-Jan-22 04:25N 33°44' W 118°17'0 0.0
2015-Jan-22 03:33N 33°44' W 118°17'0 0.0
2015-Jan-22 02:31N 33°44' W 118°17'  
Track history (hours):
 
Tides and Currents Weather Stations Pressure Air Temp Water Temp Dewpoint Dewpoint Depression Visibility Wind Speed Wind Dir Waves Ship Positions

Goliah

Owner: Crowley Marine Services, Inc., Seattle, WA. More information available from US FCC via Universal Licensing System and Coast Guard Vessel Documentation Center.

Last reported at 2015-Jan-30 18:19 UTC. Time now 2015-Jan-31 00:48 UTC.
Position N 33°47' W 118°27'.

Length 33 m; draft 4.8 m.

Type: Tug. MMSI: 366898250.

Date/timePositionNaut miles runAvg speedWind from/ knotsBaromVisibWave heightAir tempDewpointWater temp
2015-Jan-30 18:19N 33°47' W 118°27'7 9.2
2015-Jan-30 17:33N 33°54' W 118°27'1 0.6
2015-Jan-30 16:33N 33°54' W 118°27'0 0.4
2015-Jan-30 15:33N 33°54' W 118°27'0 0.4
2015-Jan-30 14:33N 33°54' W 118°27'15 3.4
2015-Jan-30 10:18N 33°45' W 118°13'0 0.3
2015-Jan-30 09:17N 33°45' W 118°13'0 0.4
2015-Jan-30 08:33N 33°45' W 118°13'2 2.2
2015-Jan-30 07:27N 33°44' W 118°10'2 2.5
2015-Jan-30 06:30N 33°45' W 118°13'0 0.0
2015-Jan-30 05:33N 33°45' W 118°13'0 0.0
2015-Jan-30 04:32N 33°45' W 118°13'1 1.4
2015-Jan-30 03:33N 33°46' W 118°14'0 0.5
2015-Jan-30 02:31N 33°46' W 118°13'2 2.4
2015-Jan-30 01:30N 33°44' W 118°12'3 2.5
2015-Jan-30 00:12N 33°43' W 118°16'1 1.9
2015-Jan-29 23:27N 33°44' W 118°17'0 0.0
2015-Jan-29 22:13N 33°44' W 118°17'0 0.0
2015-Jan-29 21:32N 33°44' W 118°17'0 0.0
2015-Jan-29 20:33N 33°44' W 118°17'4 0.6
2015-Jan-29 14:32N 33°46' W 118°13'2 1.5
2015-Jan-29 13:34N 33°45' W 118°13'0 0.3
2015-Jan-29 12:28N 33°45' W 118°13'0 0.4
2015-Jan-29 11:32N 33°45' W 118°13'0 0.0
2015-Jan-29 10:33N 33°45' W 118°13'0 0.4
2015-Jan-29 09:33N 33°45' W 118°12'3 2.6
2015-Jan-29 08:17N 33°43' W 118°16'3 0.7
2015-Jan-29 03:34N 33°46' W 118°13'0 0.0
2015-Jan-29 02:33N 33°46' W 118°13'1 1.1
2015-Jan-29 01:33N 33°44' W 118°13'3 0.4
2015-Jan-28 17:09N 33°44' W 118°17'0 0.0
2015-Jan-28 16:27N 33°44' W 118°17'0 0.0
2015-Jan-28 15:30N 33°44' W 118°17'1 0.6
2015-Jan-28 13:32N 33°45' W 118°16'5 4.0
2015-Jan-28 12:17N 33°41' W 118°14'4 5.9
2015-Jan-28 11:33N 33°44' W 118°17'0 0.0
2015-Jan-28 10:34N 33°44' W 118°17'0 0.0
2015-Jan-28 09:34N 33°44' W 118°17'0 0.0
2015-Jan-28 07:28N 33°44' W 118°17'0 0.0
2015-Jan-28 06:32N 33°44' W 118°17'0 0.0
2015-Jan-28 04:13N 33°44' W 118°17'0 0.0
2015-Jan-28 03:34N 33°44' W 118°17'0 0.0
2015-Jan-28 02:33N 33°44' W 118°17'0 0.0
2015-Jan-28 01:33N 33°44' W 118°17'0 0.0
2015-Jan-28 00:33N 33°44' W 118°17'0 0.0
2015-Jan-27 23:19N 33°44' W 118°17'0 0.0
2015-Jan-26 22:34N 33°44' W 118°17'4 0.4
2015-Jan-26 14:23N 33°45' W 118°12'2 2.0
2015-Jan-26 13:32N 33°44' W 118°11'4 0.4
2015-Jan-26 03:05N 33°45' W 118°16'1 1.2
2015-Jan-26 02:31N 33°46' W 118°16'0 0.0
2015-Jan-24 23:32N 33°45' W 118°16'0 0.0
2015-Jan-24 19:32N 33°46' W 118°16'3 0.5
2015-Jan-24 13:05N 33°43' W 118°13'3 0.8
2015-Jan-24 09:14N 33°44' W 118°17'0 0.0
2015-Jan-24 08:33N 33°44' W 118°17'0 0.0
2015-Jan-24 07:33N 33°44' W 118°17'2 1.4
2015-Jan-24 06:27N 33°46' W 118°16'0 0.4
2015-Jan-24 05:33N 33°45' W 118°16'2 1.5
2015-Jan-24 04:04N 33°43' W 118°16'0 0.5
2015-Jan-24 03:33N 33°43' W 118°16'1 1.3
2015-Jan-24 02:33N 33°45' W 118°17'0 0.0
2015-Jan-23 18:25N 33°44' W 118°17'0 0.0
2015-Jan-22 19:08N 33°44' W 118°17'0 0.0
2015-Jan-22 17:32N 33°44' W 118°17'0 0.0
2015-Jan-22 16:32N 33°44' W 118°17'0 0.0
2015-Jan-22 15:33N 33°44' W 118°17'0 0.0
2015-Jan-22 14:32N 33°44' W 118°17'0 0.0
2015-Jan-22 13:29N 33°44' W 118°17'0 0.0
2015-Jan-22 12:33N 33°44' W 118°17'0 0.0
2015-Jan-22 10:22N 33°44' W 118°17'0 0.0
2015-Jan-22 09:32N 33°44' W 118°17'0 0.0
2015-Jan-22 08:30N 33°44' W 118°17'0 0.0
2015-Jan-22 07:27N 33°44' W 118°17'0 0.0
2015-Jan-22 06:27N 33°44' W 118°17'0 0.0
2015-Jan-22 05:33N 33°44' W 118°17'0 0.0
2015-Jan-22 04:25N 33°44' W 118°17'0 0.0
2015-Jan-22 03:33N 33°44' W 118°17'0 0.0
2015-Jan-22 02:31N 33°44' W 118°17'  

Dump ship's entire track history